createdAt,value
2022-08-26T00:01:29.800Z,12.05
2022-08-26T00:03:58.745Z,17.13
2022-08-26T00:06:28.382Z,15.95
2022-08-26T00:08:56.678Z,15.40
2022-08-26T00:11:27.002Z,14.95
2022-08-26T00:13:55.262Z,19.08
2022-08-26T00:16:25.789Z,8.40
2022-08-26T00:18:54.213Z,15.63
2022-08-26T00:21:22.442Z,16.95
2022-08-26T00:23:52.866Z,19.30
2022-08-26T00:26:21.084Z,14.70
2022-08-26T00:28:49.627Z,16.25
2022-08-26T00:31:18.185Z,15.60
2022-08-26T00:33:46.339Z,11.98
2022-08-26T00:36:20.301Z,13.80
2022-08-26T00:38:49.115Z,18.08
2022-08-26T00:41:19.878Z,15.23
2022-08-26T00:43:48.129Z,14.30
2022-08-26T00:46:20.696Z,16.75
2022-08-26T00:48:51.125Z,13.35
2022-08-26T00:51:23.072Z,11.32
2022-08-26T00:53:56.239Z,15.38
2022-08-26T00:56:29.344Z,9.48
2022-08-26T00:58:59.942Z,14.70
2022-08-26T01:01:28.429Z,16.20
2022-08-26T01:04:00.354Z,15.52
2022-08-26T01:06:28.818Z,12.25
2022-08-26T01:08:57.158Z,12.10
2022-08-26T01:11:27.644Z,18.30
2022-08-26T01:13:58.334Z,14.18
2022-08-26T01:16:26.628Z,15.10
2022-08-26T01:18:59.774Z,14.15
2022-08-26T01:21:32.208Z,16.08
2022-08-26T01:24:01.831Z,11.60
2022-08-26T01:26:34.198Z,12.32
2022-08-26T01:29:06.279Z,13.65
2022-08-26T01:31:41.767Z,10.55
2022-08-26T01:34:16.240Z,13.38
2022-08-26T01:36:50.638Z,11.10
2022-08-26T01:39:21.186Z,9.35
2022-08-26T01:41:53.705Z,11.88
2022-08-26T01:44:26.325Z,14.18
2022-08-26T01:46:55.804Z,13.60
2022-08-26T01:49:26.058Z,14.05
2022-08-26T01:51:56.292Z,19.75
2022-08-26T01:54:27.566Z,10.93
2022-08-26T01:56:55.925Z,16.80
2022-08-26T01:59:26.274Z,13.75
2022-08-26T02:01:54.813Z,15.63
2022-08-26T02:04:25.560Z,11.05
2022-08-26T02:06:56.260Z,11.93
2022-08-26T02:09:25.741Z,14.27
2022-08-26T02:11:56.637Z,14.30
2022-08-26T02:14:29.184Z,18.50
2022-08-26T02:16:58.333Z,12.10
2022-08-26T02:19:29.908Z,14.82
2022-08-26T02:22:00.514Z,11.77
2022-08-26T02:24:46.233Z,11.65
2022-08-26T02:27:16.424Z,13.88
2022-08-26T02:29:49.355Z,12.45
2022-08-26T02:32:18.722Z,11.45
2022-08-26T02:34:47.765Z,17.10
2022-08-26T02:37:15.827Z,15.82
2022-08-26T02:39:45.908Z,13.60
2022-08-26T02:42:17.521Z,15.32
2022-08-26T02:44:45.550Z,10.55
2022-08-26T02:47:15.116Z,15.77
2022-08-26T02:49:44.424Z,14.18
2022-08-26T02:52:15.501Z,13.23
2022-08-26T02:54:43.607Z,14.98
2022-08-26T02:57:13.557Z,17.83
2022-08-26T02:59:43.004Z,14.23
2022-08-26T03:02:12.651Z,17.40
2022-08-26T03:04:58.033Z,14.88
2022-08-26T03:07:30.498Z,14.52
2022-08-26T03:09:59.064Z,18.92
2022-08-26T03:12:27.615Z,19.50
2022-08-26T03:14:57.705Z,16.17
2022-08-26T03:17:26.924Z,12.68
2022-08-26T03:19:57.185Z,16.10
2022-08-26T03:22:26.045Z,22.23
2022-08-26T03:24:55.562Z,13.95
2022-08-26T03:27:23.625Z,15.45
2022-08-26T03:30:11.841Z,19.92
2022-08-26T03:32:41.725Z,9.93
2022-08-26T03:35:10.272Z,13.88
2022-08-26T03:37:38.905Z,13.43
2022-08-26T03:40:10.499Z,13.23
2022-08-26T03:42:39.380Z,18.38
2022-08-26T03:45:10.796Z,13.85
2022-08-26T03:47:39.838Z,12.98
2022-08-26T03:50:11.749Z,17.23
2022-08-26T03:52:43.838Z,14.25
2022-08-26T03:55:12.579Z,15.98
2022-08-26T03:57:40.692Z,16.60
2022-08-26T04:00:15.128Z,15.27
2022-08-26T04:02:48.836Z,17.85
2022-08-26T04:05:20.537Z,18.80
2022-08-26T04:07:49.189Z,24.98
2022-08-26T04:10:22.151Z,21.85
2022-08-26T04:12:58.788Z,17.00
2022-08-26T04:15:28.351Z,16.58
2022-08-26T04:17:57.535Z,19.95
2022-08-26T04:20:27.386Z,23.30
2022-08-26T04:22:56.291Z,23.92
2022-08-26T04:25:25.157Z,20.17
2022-08-26T04:27:53.275Z,24.48
2022-08-26T04:30:21.900Z,23.08
2022-08-26T04:32:50.331Z,16.17
2022-08-26T04:35:22.800Z,17.70
2022-08-26T04:37:56.124Z,23.33
2022-08-26T04:40:26.659Z,16.58
2022-08-26T04:42:54.985Z,23.77
2022-08-26T04:45:23.384Z,14.95
2022-08-26T04:47:56.300Z,18.30
2022-08-26T04:50:26.543Z,16.95
2022-08-26T04:52:56.498Z,18.27
2022-08-26T04:55:38.201Z,20.02
2022-08-26T04:58:10.301Z,21.25
2022-08-26T05:00:39.197Z,20.60
2022-08-26T05:03:10.367Z,20.92
2022-08-26T05:05:43.274Z,14.93
2022-08-26T05:08:14.163Z,20.98
2022-08-26T05:10:42.674Z,19.85
2022-08-26T05:13:14.301Z,16.45
2022-08-26T05:15:44.585Z,15.85
2022-08-26T05:18:14.192Z,18.65
2022-08-26T05:20:43.463Z,19.83
2022-08-26T05:23:14.672Z,16.55
2022-08-26T05:25:45.481Z,20.17
2022-08-26T05:28:15.349Z,22.80
2022-08-26T05:30:44.467Z,25.48
2022-08-26T05:33:13.216Z,20.00
2022-08-26T05:35:42.185Z,15.52
2022-08-26T05:38:12.933Z,19.63
2022-08-26T05:40:45.174Z,18.33
2022-08-26T05:43:14.544Z,16.70
2022-08-26T05:45:46.237Z,20.80
2022-08-26T05:48:16.087Z,15.75
2022-08-26T05:50:46.895Z,23.35
2022-08-26T05:53:17.515Z,21.10
2022-08-26T05:55:50.253Z,17.02
2022-08-26T05:58:20.223Z,15.35
2022-08-26T06:00:56.991Z,17.10
2022-08-26T06:03:25.233Z,19.40
2022-08-26T06:05:53.427Z,18.77
2022-08-26T06:08:21.634Z,16.60
2022-08-26T06:10:52.682Z,18.13
2022-08-26T06:13:22.510Z,16.45
2022-08-26T06:15:51.756Z,18.90
2022-08-26T06:18:23.000Z,14.45
2022-08-26T06:20:57.725Z,16.08
2022-08-26T06:23:45.237Z,20.05
2022-08-26T06:26:17.930Z,14.70
2022-08-26T06:28:45.970Z,17.50
2022-08-26T06:31:15.401Z,15.80
2022-08-26T06:33:44.405Z,18.40
2022-08-26T06:36:17.287Z,21.08
2022-08-26T06:38:47.736Z,13.88
2022-08-26T06:41:18.048Z,18.92
2022-08-26T06:43:46.150Z,17.02
2022-08-26T06:46:17.826Z,18.73
2022-08-26T06:48:49.131Z,16.50
2022-08-26T06:51:22.334Z,15.38
2022-08-26T06:53:53.710Z,21.85
2022-08-26T06:56:25.589Z,23.40
2022-08-26T06:58:54.627Z,16.25
2022-08-26T07:01:27.319Z,13.45
2022-08-26T07:03:58.157Z,14.77
2022-08-26T07:06:28.183Z,16.23
2022-08-26T07:09:03.756Z,13.55
2022-08-26T07:11:35.446Z,16.20
2022-08-26T07:14:04.484Z,13.45
2022-08-26T07:16:32.563Z,14.60
2022-08-26T07:19:03.317Z,20.85
2022-08-26T07:21:31.767Z,15.70
2022-08-26T07:24:00.655Z,19.05
2022-08-26T07:26:31.585Z,15.02
2022-08-26T07:29:02.229Z,15.38
2022-08-26T07:31:39.223Z,10.45
2022-08-26T07:34:10.938Z,14.55
2022-08-26T07:36:39.028Z,13.13
2022-08-26T07:39:08.002Z,13.32
2022-08-26T07:41:36.610Z,14.25
2022-08-26T07:44:06.458Z,13.63
2022-08-26T07:46:36.803Z,22.25
2022-08-26T07:49:05.021Z,14.65
2022-08-26T07:51:33.563Z,17.55
2022-08-26T07:54:02.507Z,18.15
2022-08-26T07:56:30.605Z,18.17
2022-08-26T07:58:59.729Z,13.38
2022-08-26T08:01:31.530Z,12.48
2022-08-26T08:04:01.278Z,13.35
2022-08-26T08:06:30.461Z,13.55
2022-08-26T08:09:00.555Z,16.45
2022-08-26T08:11:31.047Z,17.73
2022-08-26T08:14:01.740Z,16.95
2022-08-26T08:16:32.370Z,12.88
2022-08-26T08:19:02.637Z,12.88
2022-08-26T08:21:31.881Z,14.35
2022-08-26T08:24:00.605Z,15.30
2022-08-26T08:26:28.671Z,14.45
2022-08-26T08:28:58.413Z,18.95
2022-08-26T08:34:21.480Z,14.90
2022-08-26T08:36:50.415Z,12.38
2022-08-26T08:39:22.002Z,15.15
2022-08-26T08:42:04.230Z,16.25
2022-08-26T08:44:32.720Z,14.25
2022-08-26T08:47:06.122Z,12.10
2022-08-26T08:49:35.574Z,15.07
2022-08-26T08:52:12.231Z,13.85
2022-08-26T08:54:40.386Z,15.43
2022-08-26T08:57:14.268Z,17.95
2022-08-26T08:59:53.280Z,11.65
2022-08-26T09:02:29.808Z,16.73
2022-08-26T09:05:15.509Z,17.88
2022-08-26T09:07:49.203Z,12.75
2022-08-26T09:10:30.170Z,13.93
2022-08-26T09:12:58.817Z,17.20
2022-08-26T09:15:33.710Z,15.40
2022-08-26T09:18:10.460Z,12.50
2022-08-26T09:20:50.561Z,17.17
2022-08-26T09:23:19.176Z,15.48
2022-08-26T09:25:49.896Z,17.00
2022-08-26T09:28:19.674Z,16.80
2022-08-26T09:30:58.895Z,14.65
2022-08-26T09:33:32.060Z,15.07
2022-08-26T09:36:26.226Z,12.73
2022-08-26T09:38:55.312Z,15.75
2022-08-26T09:41:31.751Z,21.63
2022-08-26T09:44:18.334Z,16.90
2022-08-26T09:46:55.038Z,12.70
2022-08-26T09:49:36.088Z,9.95
2022-08-26T09:52:12.483Z,17.98
2022-08-26T09:54:41.275Z,17.15
2022-08-26T09:57:18.922Z,14.38
2022-08-26T09:59:47.818Z,13.57
2022-08-26T10:02:35.827Z,14.48
2022-08-26T10:05:09.311Z,10.32
2022-08-26T10:07:42.916Z,14.23
2022-08-26T10:10:18.489Z,11.50
2022-08-26T10:13:03.191Z,9.25
2022-08-26T10:15:39.309Z,15.70
2022-08-26T10:18:14.187Z,19.92
2022-08-26T10:20:52.344Z,20.52
2022-08-26T10:23:25.613Z,17.38
2022-08-26T10:25:59.153Z,19.88
2022-08-26T10:28:36.466Z,18.55
2022-08-26T10:31:09.895Z,10.82
2022-08-26T10:33:40.074Z,13.38
2022-08-26T10:36:46.929Z,17.08
2022-08-26T10:39:30.000Z,13.85
2022-08-26T10:42:02.030Z,14.23
2022-08-26T10:44:36.338Z,13.20
2022-08-26T10:47:13.400Z,10.80
2022-08-26T10:49:42.702Z,12.95
2022-08-26T10:52:17.951Z,16.45
2022-08-26T10:54:51.616Z,11.85
2022-08-26T10:57:26.233Z,13.88
2022-08-26T11:00:27.575Z,16.52
2022-08-26T11:03:01.000Z,19.15
2022-08-26T11:05:29.389Z,14.70
2022-08-26T11:08:28.039Z,10.20
2022-08-26T11:10:59.871Z,17.33
2022-08-26T11:14:02.987Z,10.65
2022-08-26T11:16:37.262Z,11.05
2022-08-26T11:19:12.857Z,11.50
2022-08-26T11:21:52.255Z,13.82
2022-08-26T11:25:03.012Z,16.77
2022-08-26T11:27:56.956Z,13.20
2022-08-26T11:30:43.572Z,9.63
2022-08-26T11:33:12.730Z,13.23
2022-08-26T11:35:50.066Z,10.60
2022-08-26T11:38:26.236Z,15.80
2022-08-26T11:41:17.666Z,10.27
2022-08-26T11:43:49.425Z,8.43
2022-08-26T11:46:25.526Z,12.23
2022-08-26T11:49:02.142Z,13.13
2022-08-26T11:51:31.856Z,8.60
2022-08-26T11:54:14.576Z,16.05
2022-08-26T11:56:46.255Z,14.82
2022-08-26T11:59:20.832Z,13.00
2022-08-26T12:01:51.466Z,17.73
2022-08-26T12:04:28.684Z,14.05
2022-08-26T12:06:58.176Z,11.48
2022-08-26T12:09:28.550Z,11.57
2022-08-26T12:12:12.224Z,14.60
2022-08-26T12:14:42.129Z,12.50
2022-08-26T12:17:12.812Z,14.57
2022-08-26T12:19:40.925Z,10.40
2022-08-26T12:22:20.871Z,12.60
2022-08-26T12:24:53.287Z,12.57
2022-08-26T12:27:24.395Z,18.80
2022-08-26T12:30:06.796Z,8.20
2022-08-26T12:32:51.040Z,12.15
2022-08-26T12:35:28.814Z,10.30
2022-08-26T12:37:57.973Z,20.00
2022-08-26T12:40:29.931Z,12.73
2022-08-26T12:43:00.463Z,14.02
2022-08-26T12:45:32.677Z,8.38
2022-08-26T12:48:03.629Z,15.32
2022-08-26T12:50:35.005Z,9.10
2022-08-26T12:53:05.755Z,11.85
2022-08-26T12:55:40.612Z,13.18
2022-08-26T12:58:14.568Z,14.07
2022-08-26T13:00:45.941Z,11.63
2022-08-26T13:03:43.488Z,7.90
2022-08-26T13:06:29.782Z,12.73
2022-08-26T13:08:59.851Z,10.20
2022-08-26T13:11:30.145Z,11.68
2022-08-26T13:14:00.438Z,9.65
2022-08-26T13:16:31.650Z,10.35
2022-08-26T13:19:03.124Z,12.43
2022-08-26T13:21:37.454Z,13.00
2022-08-26T13:24:09.096Z,7.38
2022-08-26T13:26:37.246Z,12.63
2022-08-26T13:29:10.167Z,13.88
2022-08-26T13:31:41.736Z,9.73
2022-08-26T13:34:11.806Z,8.75
2022-08-26T13:36:40.334Z,7.15
2022-08-26T13:39:08.957Z,9.98
2022-08-26T13:41:37.260Z,9.73
2022-08-26T13:44:06.431Z,7.03
2022-08-26T13:46:34.640Z,12.38
2022-08-26T13:49:04.359Z,10.80
2022-08-26T13:51:32.916Z,5.90
2022-08-26T13:54:01.726Z,9.68
2022-08-26T13:56:30.840Z,5.07
2022-08-26T13:59:00.154Z,5.00
2022-08-26T14:01:30.223Z,7.95
2022-08-26T14:03:58.733Z,7.50
2022-08-26T14:06:28.279Z,11.65
2022-08-26T14:08:56.360Z,15.77
2022-08-26T14:11:25.050Z,9.48
2022-08-26T14:13:53.583Z,8.20
2022-08-26T14:16:25.944Z,6.53
2022-08-26T14:18:54.654Z,16.17
2022-08-26T14:21:23.069Z,11.20
2022-08-26T14:23:54.504Z,8.38
2022-08-26T14:26:29.405Z,10.57
2022-08-26T14:28:58.906Z,7.22
2022-08-26T14:31:29.242Z,10.02
2022-08-26T14:33:59.445Z,9.57
2022-08-26T14:36:32.147Z,8.23
2022-08-26T14:39:04.390Z,6.47
2022-08-26T14:41:34.404Z,10.90
2022-08-26T14:44:05.924Z,10.25
2022-08-26T14:46:40.534Z,11.10
2022-08-26T14:49:11.321Z,16.20
2022-08-26T14:51:39.895Z,13.80
2022-08-26T14:54:12.844Z,10.13
2022-08-26T14:56:54.428Z,10.95
2022-08-26T14:59:25.230Z,10.25
2022-08-26T15:01:54.803Z,8.77
2022-08-26T15:04:23.809Z,8.90
2022-08-26T15:06:53.236Z,14.02
2022-08-26T15:09:24.135Z,11.93
2022-08-26T15:11:53.182Z,10.20
2022-08-26T15:14:22.458Z,8.60
2022-08-26T15:16:51.503Z,9.70
2022-08-26T15:19:21.077Z,10.82
2022-08-26T15:21:49.622Z,15.20
2022-08-26T15:24:22.053Z,14.13
2022-08-26T15:26:52.186Z,11.10
2022-08-26T15:29:20.622Z,10.23
2022-08-26T15:31:49.228Z,12.70
2022-08-26T15:34:17.826Z,11.65
2022-08-26T15:36:48.028Z,11.18
2022-08-26T15:39:18.319Z,15.98
2022-08-26T15:41:46.817Z,11.23
2022-08-26T15:44:17.715Z,16.13
2022-08-26T15:46:45.933Z,8.57
2022-08-26T15:49:18.405Z,9.93
2022-08-26T15:51:49.192Z,10.00
2022-08-26T15:54:19.657Z,9.27
2022-08-26T15:56:50.662Z,14.38
2022-08-26T15:59:24.675Z,8.93
2022-08-26T16:01:53.791Z,8.52
2022-08-26T16:04:22.378Z,13.90
2022-08-26T16:06:52.244Z,10.68
2022-08-26T16:09:21.342Z,13.05
2022-08-26T16:11:50.428Z,9.43
2022-08-26T16:14:19.984Z,14.15
2022-08-26T16:16:48.264Z,14.35
2022-08-26T16:19:16.628Z,13.25
2022-08-26T16:21:45.344Z,16.85
2022-08-26T16:24:13.724Z,11.60
2022-08-26T16:26:44.003Z,10.50
2022-08-26T16:29:14.276Z,11.57
2022-08-26T16:31:44.096Z,12.73
2022-08-26T16:34:12.689Z,11.30
2022-08-26T16:36:41.296Z,11.18
2022-08-26T16:39:10.261Z,14.23
2022-08-26T16:41:38.611Z,12.95
2022-08-26T16:44:08.002Z,9.25
2022-08-26T16:46:36.516Z,11.60
2022-08-26T16:49:06.106Z,13.43
2022-08-26T16:51:37.815Z,8.57
2022-08-26T16:54:07.957Z,10.07
2022-08-26T16:56:37.984Z,12.43
2022-08-26T16:59:08.187Z,11.43
2022-08-26T17:01:36.600Z,14.88
2022-08-26T17:04:06.450Z,12.85
2022-08-26T17:06:34.841Z,12.88
2022-08-26T17:09:03.078Z,12.98
2022-08-26T17:11:31.509Z,14.38
2022-08-26T17:13:59.655Z,9.52
2022-08-26T17:16:28.270Z,12.75
2022-08-26T17:18:57.143Z,10.57
2022-08-26T17:21:27.944Z,11.50
2022-08-26T17:23:56.398Z,11.35
2022-08-26T17:26:24.520Z,14.63
2022-08-26T17:28:52.621Z,11.68
2022-08-26T17:31:21.877Z,15.25
2022-08-26T17:33:53.936Z,11.35
2022-08-26T17:36:23.024Z,15.40
2022-08-26T17:38:57.908Z,10.82
2022-08-26T17:41:27.093Z,13.40
2022-08-26T17:43:55.157Z,14.27
2022-08-26T17:46:23.401Z,16.77
2022-08-26T17:48:51.489Z,13.50
2022-08-26T17:51:20.313Z,14.50
2022-08-26T17:53:48.977Z,16.38
2022-08-26T17:56:21.118Z,16.98
2022-08-26T17:58:51.896Z,17.52
2022-08-26T18:01:21.049Z,14.88
2022-08-26T18:03:49.500Z,18.52
2022-08-26T18:06:17.641Z,13.75
2022-08-26T18:08:46.096Z,12.10
2022-08-26T18:11:16.418Z,15.65
2022-08-26T18:13:47.263Z,12.70
2022-08-26T18:16:17.208Z,15.45
2022-08-26T18:18:45.546Z,19.08
2022-08-26T18:21:15.597Z,17.42
2022-08-26T18:23:43.851Z,18.90
2022-08-26T18:26:17.849Z,16.67
2022-08-26T18:28:47.342Z,17.35
2022-08-26T18:31:16.329Z,13.00
2022-08-26T18:33:44.840Z,15.30
2022-08-26T18:36:20.091Z,19.95
2022-08-26T18:38:50.378Z,16.95
2022-08-26T18:41:20.630Z,20.80
2022-08-26T18:43:51.320Z,22.58
2022-08-26T18:46:21.043Z,16.73
2022-08-26T18:48:51.251Z,12.85
2022-08-26T18:51:21.626Z,15.10
2022-08-26T18:53:50.182Z,16.40
2022-08-26T18:56:18.927Z,14.52
2022-08-26T18:58:47.163Z,22.95
2022-08-26T19:01:17.606Z,17.98
2022-08-26T19:03:45.876Z,20.63
2022-08-26T19:06:17.867Z,18.55
2022-08-26T19:08:46.712Z,16.67
2022-08-26T19:11:31.298Z,18.13
2022-08-26T19:14:02.637Z,19.88
2022-08-26T19:16:32.203Z,21.70
2022-08-26T19:19:01.830Z,21.50
2022-08-26T19:21:30.913Z,20.98
2022-08-26T19:24:00.526Z,23.08
2022-08-26T19:26:29.332Z,18.27
2022-08-26T19:28:58.344Z,18.95
2022-08-26T19:31:26.697Z,17.38
2022-08-26T19:33:57.961Z,21.00
2022-08-26T19:36:27.639Z,19.45
2022-08-26T19:38:56.893Z,20.42
2022-08-26T19:41:36.934Z,28.05
2022-08-26T19:44:07.944Z,22.38
2022-08-26T19:46:39.949Z,17.80
2022-08-26T19:49:09.341Z,26.85
2022-08-26T19:51:37.484Z,21.95
2022-08-26T19:54:07.003Z,23.95
2022-08-26T19:56:35.086Z,22.05
2022-08-26T19:59:03.221Z,23.77
2022-08-26T20:01:31.709Z,19.05
2022-08-26T20:04:00.005Z,21.75
2022-08-26T20:06:29.431Z,22.85
2022-08-26T20:08:57.956Z,20.23
2022-08-26T20:11:26.506Z,29.70
2022-08-26T20:13:55.375Z,23.58
2022-08-26T20:16:23.526Z,23.77
2022-08-26T20:19:10.865Z,24.58
2022-08-26T20:21:42.528Z,25.75
2022-08-26T20:24:13.895Z,23.15
2022-08-26T20:26:44.385Z,24.23
2022-08-26T20:29:20.248Z,22.75
2022-08-26T20:31:48.909Z,25.52
2022-08-26T20:34:19.484Z,25.33
2022-08-26T20:36:50.902Z,26.08
2022-08-26T20:39:20.985Z,21.48
2022-08-26T20:41:49.571Z,22.95
2022-08-26T20:44:17.848Z,25.63
2022-08-26T20:46:46.544Z,23.08
2022-08-26T20:49:15.541Z,17.98
2022-08-26T20:51:43.956Z,22.75
2022-08-26T20:54:13.956Z,20.15
2022-08-26T20:56:42.084Z,22.58
2022-08-26T20:59:10.852Z,19.33
2022-08-26T21:01:39.976Z,19.05
2022-08-26T21:04:12.706Z,26.58
2022-08-26T21:06:42.261Z,17.92
2022-08-26T21:09:19.187Z,23.00
2022-08-26T21:11:47.338Z,22.02
2022-08-26T21:14:17.109Z,20.42
2022-08-26T21:16:47.006Z,23.33
2022-08-26T21:19:18.755Z,21.52
2022-08-26T21:21:47.841Z,19.15
2022-08-26T21:24:16.087Z,22.48
2022-08-26T21:26:45.882Z,16.90
2022-08-26T21:29:14.329Z,21.85
2022-08-26T21:31:46.977Z,17.02
2022-08-26T21:34:15.913Z,19.05
2022-08-26T21:36:44.061Z,19.48
2022-08-26T21:39:12.721Z,22.55
2022-08-26T21:41:41.756Z,20.85
2022-08-26T21:44:12.191Z,22.92
2022-08-26T21:46:40.752Z,18.55
2022-08-26T21:49:10.819Z,21.52
2022-08-26T21:51:41.194Z,20.52
2022-08-26T21:54:11.359Z,19.15
2022-08-26T21:56:41.496Z,23.20
2022-08-26T21:59:11.502Z,25.05
2022-08-26T22:01:39.580Z,24.10
2022-08-26T22:04:09.689Z,26.20
2022-08-26T22:06:43.363Z,19.90
2022-08-26T22:09:11.806Z,21.70
2022-08-26T22:11:40.041Z,23.88
2022-08-26T22:14:08.167Z,22.13
2022-08-26T22:16:37.739Z,20.58
2022-08-26T22:19:06.252Z,20.25
2022-08-26T22:21:35.742Z,19.50
2022-08-26T22:24:07.102Z,20.67
2022-08-26T22:26:35.529Z,26.05
2022-08-26T22:29:04.989Z,23.02
2022-08-26T22:31:37.773Z,21.38
2022-08-26T22:34:09.903Z,17.90
2022-08-26T22:36:43.289Z,21.58
2022-08-26T22:39:12.854Z,19.25
2022-08-26T22:41:41.335Z,23.05
2022-08-26T22:44:10.390Z,23.25
2022-08-26T22:46:38.978Z,16.88
2022-08-26T22:49:09.645Z,20.30
2022-08-26T22:51:37.875Z,20.02
2022-08-26T22:54:06.629Z,20.45
2022-08-26T22:56:35.100Z,18.48
2022-08-26T22:59:03.235Z,26.17
2022-08-26T23:01:31.818Z,18.67
2022-08-26T23:03:59.923Z,21.30
2022-08-26T23:06:29.409Z,20.20
2022-08-26T23:08:57.498Z,24.42
2022-08-26T23:11:25.588Z,22.60
2022-08-26T23:13:53.696Z,20.00
2022-08-26T23:16:22.284Z,21.60
2022-08-26T23:18:50.457Z,20.05
2022-08-26T23:21:18.876Z,21.95
2022-08-26T23:23:48.335Z,17.80
2022-08-26T23:26:17.806Z,25.60
2022-08-26T23:28:46.023Z,19.88
2022-08-26T23:31:15.416Z,19.60
2022-08-26T23:34:01.206Z,18.52
2022-08-26T23:36:31.103Z,26.58
2022-08-26T23:39:06.093Z,22.38
2022-08-26T23:41:35.795Z,28.30
2022-08-26T23:44:05.296Z,21.48
2022-08-26T23:46:34.094Z,19.42
2022-08-26T23:49:02.566Z,19.02
2022-08-26T23:51:48.232Z,19.25
2022-08-26T23:54:17.885Z,21.98
2022-08-26T23:56:46.173Z,25.42
2022-08-26T23:59:14.351Z,19.60
